createdAt,value
2018-06-22T00:01:44.396Z,6.67
2018-06-22T00:04:14.080Z,8.80
2018-06-22T00:06:43.734Z,11.17
2018-06-22T00:09:13.368Z,6.40
2018-06-22T00:11:43.058Z,7.67
2018-06-22T00:14:12.751Z,7.17
2018-06-22T00:16:42.444Z,8.33
2018-06-22T00:19:12.093Z,7.87
2018-06-22T00:21:41.741Z,5.97
2018-06-22T00:24:11.407Z,11.67
2018-06-22T00:26:41.060Z,9.23
2018-06-22T00:29:10.721Z,7.43
2018-06-22T00:31:40.443Z,10.30
2018-06-22T00:34:10.075Z,7.83
2018-06-22T00:36:39.736Z,9.33
2018-06-22T00:39:10.507Z,8.83
2018-06-22T00:41:40.211Z,6.50
2018-06-22T00:44:09.856Z,11.20
2018-06-22T00:46:39.527Z,5.90
2018-06-22T00:49:09.171Z,7.83
2018-06-22T00:51:38.815Z,7.40
2018-06-22T00:54:16.492Z,6.17
2018-06-22T00:56:46.567Z,9.87
2018-06-22T00:59:16.481Z,7.50
2018-06-22T01:01:46.133Z,9.30
2018-06-22T01:04:15.828Z,9.37
2018-06-22T01:06:45.512Z,7.57
2018-06-22T01:09:15.169Z,6.77
2018-06-22T01:11:44.832Z,4.80
2018-06-22T01:14:14.556Z,8.60
2018-06-22T01:16:44.220Z,5.27
2018-06-22T01:19:13.834Z,5.87
2018-06-22T01:21:43.534Z,3.77
2018-06-22T01:24:13.176Z,6.80
2018-06-22T01:26:42.836Z,7.10
2018-06-22T01:29:17.701Z,4.97
2018-06-22T01:31:47.364Z,10.60
2018-06-22T01:34:17.014Z,5.47
2018-06-22T01:36:46.695Z,7.80
2018-06-22T01:39:16.329Z,7.83
2018-06-22T01:41:45.988Z,11.17
2018-06-22T01:44:15.690Z,6.00
2018-06-22T01:46:45.356Z,5.87
2018-06-22T01:49:15.004Z,4.90
2018-06-22T01:51:44.676Z,7.10
2018-06-22T01:54:14.331Z,10.60
2018-06-22T01:56:43.980Z,4.00
2018-06-22T01:59:13.667Z,5.27
2018-06-22T02:01:43.307Z,5.13
2018-06-22T02:04:12.950Z,10.23
2018-06-22T02:06:42.637Z,6.57
2018-06-22T02:09:13.265Z,4.53
2018-06-22T02:11:42.948Z,10.20
2018-06-22T02:14:12.568Z,8.20
2018-06-22T02:16:42.261Z,7.43
2018-06-22T02:19:11.896Z,9.63
2018-06-22T02:21:41.568Z,11.90
2018-06-22T02:24:11.293Z,7.23
2018-06-22T02:26:40.940Z,10.77
2018-06-22T02:29:10.787Z,5.77
2018-06-22T02:31:40.470Z,5.57
2018-06-22T02:34:10.125Z,5.63
2018-06-22T02:36:39.795Z,7.73
2018-06-22T02:39:11.404Z,6.33
2018-06-22T02:41:41.028Z,6.97
2018-06-22T02:44:10.672Z,6.70
2018-06-22T02:46:40.365Z,6.30
2018-06-22T02:49:10.000Z,7.33
2018-06-22T02:51:39.648Z,10.33
2018-06-22T02:54:09.342Z,8.27
2018-06-22T02:56:38.981Z,7.97
2018-06-22T02:59:08.609Z,8.60
2018-06-22T03:01:38.325Z,7.10
2018-06-22T03:04:07.948Z,8.40
2018-06-22T03:06:37.595Z,8.17
2018-06-22T03:09:08.671Z,9.07
2018-06-22T03:11:43.444Z,6.20
2018-06-22T03:14:13.152Z,7.50
2018-06-22T03:16:42.859Z,6.40
2018-06-22T03:19:12.476Z,4.27
2018-06-22T03:21:42.165Z,9.63
2018-06-22T03:24:11.819Z,5.07
2018-06-22T03:26:41.484Z,8.33
2018-06-22T03:29:17.281Z,6.47
2018-06-22T03:31:46.924Z,8.03
2018-06-22T03:34:16.568Z,7.67
2018-06-22T03:36:46.284Z,7.33
2018-06-22T03:39:15.923Z,20.13
2018-06-22T03:41:45.540Z,7.30
2018-06-22T03:44:15.272Z,8.47
2018-06-22T03:46:44.915Z,7.23
2018-06-22T03:49:14.537Z,8.03
2018-06-22T03:51:44.215Z,7.83
2018-06-22T03:54:13.864Z,5.97
2018-06-22T03:56:43.533Z,7.87
2018-06-22T03:59:13.208Z,6.30
2018-06-22T04:01:42.842Z,8.20
2018-06-22T04:04:12.506Z,9.80
2018-06-22T04:06:42.180Z,6.33
2018-06-22T04:09:11.903Z,4.60
2018-06-22T04:11:41.542Z,9.20
2018-06-22T04:14:11.216Z,9.70
2018-06-22T04:16:40.868Z,10.60
2018-06-22T04:19:10.495Z,8.43
2018-06-22T04:21:40.151Z,8.73
2018-06-22T04:24:11.136Z,7.87
2018-06-22T04:26:40.820Z,15.37
2018-06-22T04:29:10.437Z,7.00
2018-06-22T04:31:40.135Z,11.47
2018-06-22T04:34:09.772Z,9.07
2018-06-22T04:36:39.416Z,9.40
2018-06-22T04:39:11.051Z,10.73
2018-06-22T04:41:41.132Z,11.67
2018-06-22T04:44:10.794Z,7.83
2018-06-22T04:46:40.493Z,8.07
2018-06-22T04:49:10.144Z,8.13
2018-06-22T04:51:39.816Z,8.20
2018-06-22T04:54:09.496Z,7.83
2018-06-22T04:56:39.134Z,7.50
2018-06-22T04:59:08.764Z,9.43
2018-06-22T05:01:38.465Z,11.83
2018-06-22T05:04:08.134Z,11.57
2018-06-22T05:06:37.803Z,12.30
2018-06-22T05:09:08.161Z,8.77
2018-06-22T05:11:37.796Z,7.03
2018-06-22T05:14:07.499Z,7.80
2018-06-22T05:16:37.196Z,9.13
2018-06-22T05:19:06.851Z,8.37
2018-06-22T05:21:36.483Z,9.70
2018-06-22T05:24:06.216Z,7.37
2018-06-22T05:26:35.861Z,6.63
2018-06-22T05:29:05.528Z,7.77
2018-06-22T05:31:35.427Z,8.50
2018-06-22T05:34:05.089Z,5.90
2018-06-22T05:36:34.820Z,6.80
2018-06-22T05:39:06.732Z,7.97
2018-06-22T05:41:36.399Z,7.50
2018-06-22T05:44:06.140Z,7.00
2018-06-22T05:46:36.011Z,3.87
2018-06-22T05:49:05.768Z,6.37
2018-06-22T05:51:35.523Z,6.20
2018-06-22T05:54:05.272Z,4.30
2018-06-22T05:56:35.021Z,5.93
2018-06-22T05:59:04.796Z,4.13
2018-06-22T06:01:34.464Z,8.03
2018-06-22T06:04:04.174Z,3.50
2018-06-22T06:06:33.824Z,2.73
2018-06-22T06:09:03.872Z,5.30
2018-06-22T06:11:33.593Z,4.23
2018-06-22T06:14:03.276Z,4.93
2018-06-22T06:16:32.916Z,4.20
2018-06-22T06:19:02.644Z,3.50
2018-06-22T06:21:32.432Z,1.87
2018-06-22T06:24:02.012Z,3.47
2018-06-22T06:26:31.716Z,2.60
2018-06-22T06:29:01.393Z,3.67
2018-06-22T06:31:31.144Z,5.53
2018-06-22T06:34:00.816Z,3.27
2018-06-22T06:36:30.868Z,2.03
2018-06-22T06:39:00.644Z,3.33
2018-06-22T06:41:30.306Z,3.27
2018-06-22T06:43:59.968Z,5.17
2018-06-22T06:46:29.701Z,5.43
2018-06-22T06:48:59.375Z,2.40
2018-06-22T06:51:29.429Z,4.40
2018-06-22T06:53:59.144Z,3.40
2018-06-22T06:56:28.815Z,4.30
2018-06-22T06:58:58.520Z,2.40
2018-06-22T07:01:28.182Z,3.07
2018-06-22T07:03:57.856Z,3.40
2018-06-22T07:06:27.557Z,3.37
2018-06-22T07:08:57.211Z,3.13
2018-06-22T07:11:26.860Z,5.20
2018-06-22T07:13:56.580Z,2.93
2018-06-22T07:16:26.243Z,3.33
2018-06-22T07:18:55.887Z,3.23
2018-06-22T07:21:25.564Z,2.00
2018-06-22T07:23:55.224Z,2.60
2018-06-22T07:26:25.276Z,2.00
2018-06-22T07:28:54.922Z,2.60
2018-06-22T07:31:24.599Z,2.60
2018-06-22T07:33:54.291Z,1.13
2018-06-22T07:36:23.945Z,2.00
2018-06-22T07:38:53.627Z,3.43
2018-06-22T07:41:23.319Z,2.37
2018-06-22T07:43:52.985Z,1.30
2018-06-22T07:46:22.653Z,0.87
2018-06-22T07:48:52.592Z,2.07
2018-06-22T07:51:22.259Z,1.27
2018-06-22T07:53:52.001Z,1.27
2018-06-22T07:56:21.698Z,2.13
2018-06-22T07:58:51.444Z,0.67
2018-06-22T08:01:21.148Z,1.13
2018-06-22T08:03:50.823Z,1.97
2018-06-22T08:06:20.522Z,1.47
2018-06-22T08:08:50.225Z,1.23
2018-06-22T08:11:19.880Z,1.97
2018-06-22T08:13:49.515Z,2.27
2018-06-22T08:16:19.301Z,2.50
2018-06-22T08:18:48.947Z,3.67
2018-06-22T08:21:18.612Z,1.73
2018-06-22T08:23:48.308Z,3.03
2018-06-22T08:26:18.879Z,2.27
2018-06-22T08:28:48.569Z,2.47
2018-06-22T08:31:18.204Z,2.33
2018-06-22T08:33:47.901Z,2.67
2018-06-22T08:36:17.600Z,1.97
2018-06-22T08:38:47.278Z,1.83
2018-06-22T08:41:16.928Z,3.53
2018-06-22T08:43:46.615Z,3.70
2018-06-22T08:46:16.259Z,4.20
2018-06-22T08:48:46.095Z,2.30
2018-06-22T08:51:15.748Z,3.83
2018-06-22T08:53:45.388Z,2.60
2018-06-22T08:56:15.089Z,3.87
2018-06-22T08:58:44.755Z,4.83
2018-06-22T09:01:15.049Z,3.03
2018-06-22T09:03:44.157Z,2.43
2018-06-22T09:06:13.788Z,3.03
2018-06-22T09:08:43.482Z,3.60
2018-06-22T09:11:13.124Z,2.63
2018-06-22T09:13:42.776Z,2.57
2018-06-22T09:16:12.447Z,3.03
2018-06-22T09:18:42.136Z,3.63
2018-06-22T09:21:11.772Z,5.57
2018-06-22T09:23:41.468Z,4.40
2018-06-22T09:26:11.142Z,3.40
2018-06-22T09:28:40.789Z,2.03
2018-06-22T09:31:10.458Z,2.57
2018-06-22T09:33:40.111Z,3.17
2018-06-22T09:36:09.760Z,2.60
2018-06-22T09:38:39.447Z,4.57
2018-06-22T09:41:09.114Z,3.73
2018-06-22T09:43:38.759Z,5.00
2018-06-22T09:46:08.424Z,5.23
2018-06-22T09:48:38.088Z,3.40
2018-06-22T09:51:07.763Z,4.87
2018-06-22T09:53:37.431Z,3.30
2018-06-22T09:56:07.148Z,2.27
2018-06-22T09:58:36.795Z,2.13
2018-06-22T10:01:06.524Z,3.27
2018-06-22T10:03:36.181Z,5.07
2018-06-22T10:06:05.875Z,3.63
2018-06-22T10:08:35.612Z,2.20
2018-06-22T10:11:05.264Z,3.90
2018-06-22T10:13:34.913Z,2.83
2018-06-22T10:16:04.661Z,6.47
2018-06-22T10:18:34.313Z,3.73
2018-06-22T10:21:04.001Z,2.73
2018-06-22T10:23:33.668Z,3.87
2018-06-22T10:26:03.328Z,2.20
2018-06-22T10:28:33.028Z,4.87
2018-06-22T10:31:02.676Z,3.07
2018-06-22T10:33:32.346Z,3.33
2018-06-22T10:36:02.029Z,3.70
2018-06-22T10:38:31.676Z,4.57
2018-06-22T10:41:01.340Z,4.43
2018-06-22T10:43:31.062Z,6.40
2018-06-22T10:46:00.817Z,4.93
2018-06-22T10:48:30.464Z,4.60
2018-06-22T10:51:00.208Z,3.90
2018-06-22T10:53:29.897Z,5.33
2018-06-22T10:55:59.598Z,5.67
2018-06-22T10:58:29.328Z,3.23
2018-06-22T11:00:59.003Z,6.70
2018-06-22T11:03:28.643Z,5.23
2018-06-22T11:05:58.319Z,7.93
2018-06-22T11:08:27.976Z,4.63
2018-06-22T11:10:57.636Z,4.17
2018-06-22T11:13:27.330Z,5.80
2018-06-22T11:15:57.777Z,4.20
2018-06-22T11:18:27.551Z,3.97
2018-06-22T11:20:57.144Z,3.83
2018-06-22T11:23:26.805Z,2.40
2018-06-22T11:25:56.529Z,4.17
2018-06-22T11:28:26.183Z,7.97
2018-06-22T11:30:55.836Z,4.43
2018-06-22T11:33:25.589Z,3.83
2018-06-22T11:35:55.284Z,5.20
2018-06-22T11:38:24.908Z,4.83
2018-06-22T11:40:54.621Z,7.83
2018-06-22T11:43:24.255Z,4.87
2018-06-22T11:45:53.971Z,6.77
2018-06-22T11:48:23.680Z,5.27
2018-06-22T11:50:53.322Z,8.67
2018-06-22T11:53:23.048Z,3.50
2018-06-22T11:55:52.695Z,6.23
2018-06-22T11:58:22.325Z,5.27
2018-06-22T12:00:52.092Z,6.40
2018-06-22T12:03:21.739Z,3.53
2018-06-22T12:05:51.432Z,4.50
2018-06-22T12:08:21.113Z,5.30
2018-06-22T12:10:50.766Z,4.97
2018-06-22T12:13:20.395Z,5.10
2018-06-22T12:15:50.084Z,6.07
2018-06-22T12:18:19.708Z,3.13
2018-06-22T12:20:49.380Z,5.97
2018-06-22T12:23:19.049Z,4.63
2018-06-22T12:25:48.685Z,3.70
2018-06-22T12:28:18.304Z,4.27
2018-06-22T12:30:47.985Z,6.27
2018-06-22T12:33:17.638Z,5.73
2018-06-22T12:35:47.320Z,5.00
2018-06-22T12:38:16.975Z,3.73
2018-06-22T12:40:46.636Z,4.60
2018-06-22T12:43:16.319Z,6.47
2018-06-22T12:45:45.957Z,4.03
2018-06-22T12:48:15.832Z,5.83
2018-06-22T12:50:45.533Z,4.03
2018-06-22T12:53:15.198Z,6.93
2018-06-22T12:55:44.860Z,5.30
2018-06-22T12:58:14.543Z,1.93
2018-06-22T13:00:44.192Z,2.37
2018-06-22T13:03:13.831Z,3.47
2018-06-22T13:05:43.509Z,5.67
2018-06-22T13:08:13.148Z,5.87
2018-06-22T13:10:42.794Z,4.20
2018-06-22T13:13:12.509Z,4.83
2018-06-22T13:15:42.192Z,2.97
2018-06-22T13:18:11.821Z,3.67
2018-06-22T13:20:41.520Z,3.23
2018-06-22T13:23:11.156Z,6.27
2018-06-22T13:25:40.792Z,3.23
2018-06-22T13:28:10.453Z,5.57
2018-06-22T13:30:40.116Z,3.63
2018-06-22T13:33:09.830Z,5.43
2018-06-22T13:35:39.728Z,5.27
2018-06-22T13:38:09.384Z,6.70
2018-06-22T13:40:39.110Z,4.17
2018-06-22T13:43:08.812Z,8.50
2018-06-22T13:45:38.848Z,6.57
2018-06-22T13:48:09.097Z,10.23
2018-06-22T13:50:39.279Z,7.07
2018-06-22T13:53:09.256Z,5.10
2018-06-22T13:55:45.348Z,5.00
2018-06-22T13:58:15.048Z,4.73
2018-06-22T14:00:51.257Z,4.90
2018-06-22T14:03:20.952Z,7.43
2018-06-22T14:05:55.811Z,4.70
2018-06-22T14:08:25.469Z,7.90
2018-06-22T14:10:55.141Z,8.10
2018-06-22T14:13:24.800Z,6.23
2018-06-22T14:15:54.516Z,7.40
2018-06-22T14:18:24.204Z,7.73
2018-06-22T14:20:53.928Z,10.57
2018-06-22T14:23:23.640Z,8.03
2018-06-22T14:25:53.303Z,5.20
2018-06-22T14:28:23.009Z,7.87
2018-06-22T14:30:52.779Z,5.70
2018-06-22T14:33:22.682Z,6.63
2018-06-22T14:35:52.443Z,6.97
2018-06-22T14:38:22.152Z,8.40
2018-06-22T14:40:51.829Z,7.77
2018-06-22T14:43:21.612Z,6.77
2018-06-22T14:45:51.316Z,6.10
2018-06-22T14:48:20.969Z,8.47
2018-06-22T14:50:50.623Z,6.23
2018-06-22T14:53:25.442Z,6.27
2018-06-22T14:56:00.344Z,5.93
2018-06-22T14:58:35.152Z,3.97
2018-06-22T15:01:09.932Z,3.97
2018-06-22T15:03:44.813Z,5.47
2018-06-22T15:06:19.712Z,6.13
2018-06-22T15:08:49.396Z,9.47
2018-06-22T15:11:19.073Z,6.80
2018-06-22T15:13:49.908Z,5.93
2018-06-22T15:16:19.593Z,6.87
2018-06-22T15:18:49.405Z,6.00
2018-06-22T15:21:19.100Z,5.97
2018-06-22T15:23:48.756Z,9.03
2018-06-22T15:26:18.447Z,6.57
2018-06-22T15:28:48.119Z,6.13
2018-06-22T15:31:17.798Z,6.90
2018-06-22T15:33:52.488Z,7.33
2018-06-22T15:36:27.317Z,7.87
2018-06-22T15:39:02.148Z,9.93
2018-06-22T15:41:36.850Z,8.60
2018-06-22T15:44:11.796Z,12.33
2018-06-22T15:46:46.637Z,9.33
2018-06-22T15:49:21.628Z,5.67
2018-06-22T15:51:56.520Z,7.93
2018-06-22T15:54:31.399Z,10.90
2018-06-22T15:57:01.166Z,14.37
2018-06-22T15:59:30.840Z,10.37
2018-06-22T16:02:04.608Z,7.13
2018-06-22T16:04:34.248Z,8.87
2018-06-22T16:07:03.988Z,9.70
2018-06-22T16:09:37.884Z,5.77
2018-06-22T16:12:12.731Z,8.80
2018-06-22T16:14:47.655Z,6.50
2018-06-22T16:17:22.381Z,6.40
2018-06-22T16:19:57.268Z,5.37
2018-06-22T16:22:31.927Z,10.07
2018-06-22T16:25:06.865Z,5.77
2018-06-22T16:27:39.888Z,7.23
2018-06-22T16:30:10.451Z,8.27
2018-06-22T16:32:40.120Z,4.47
2018-06-22T16:35:09.784Z,8.23
2018-06-22T16:37:39.484Z,7.37
2018-06-22T16:40:09.190Z,6.80
2018-06-22T16:42:38.860Z,8.53
2018-06-22T16:45:08.656Z,12.63
2018-06-22T16:47:38.316Z,12.60
2018-06-22T16:50:09.180Z,7.40
2018-06-22T16:52:39.872Z,8.00
2018-06-22T16:55:09.717Z,7.97
2018-06-22T16:57:39.521Z,9.77
2018-06-22T17:00:09.975Z,9.77
2018-06-22T17:02:39.699Z,6.77
2018-06-22T17:05:09.419Z,10.40
2018-06-22T17:07:44.105Z,12.53
2018-06-22T17:10:19.003Z,8.53
2018-06-22T17:12:53.709Z,7.50
2018-06-22T17:15:28.487Z,13.80
2018-06-22T17:18:03.371Z,7.90
2018-06-22T17:20:33.155Z,10.13
2018-06-22T17:23:02.842Z,11.63
2018-06-22T17:25:32.525Z,6.10
2018-06-22T17:28:02.238Z,9.50
2018-06-22T17:30:31.934Z,10.13
2018-06-22T17:33:01.652Z,12.60
2018-06-22T17:35:31.378Z,6.90
2018-06-22T17:38:01.060Z,9.60
2018-06-22T17:40:30.694Z,8.50
2018-06-22T17:43:00.561Z,10.23
2018-06-22T17:45:30.220Z,9.07
2018-06-22T17:47:59.906Z,8.23
2018-06-22T17:50:30.020Z,9.40
2018-06-22T17:53:00.300Z,7.70
2018-06-22T17:55:30.012Z,11.03
2018-06-22T17:57:59.727Z,7.60
2018-06-22T18:00:34.560Z,9.07
2018-06-22T18:03:09.440Z,8.07
2018-06-22T18:05:44.351Z,10.53
2018-06-22T18:08:19.112Z,9.07
2018-06-22T18:10:53.906Z,12.07
2018-06-22T18:13:23.705Z,9.53
2018-06-22T18:15:53.376Z,7.40
2018-06-22T18:18:23.152Z,8.13
2018-06-22T18:20:52.800Z,7.63
2018-06-22T18:23:22.459Z,11.20
2018-06-22T18:25:52.157Z,6.47
2018-06-22T18:28:21.788Z,9.60
2018-06-22T18:30:51.437Z,7.57
2018-06-22T18:33:21.124Z,9.70
2018-06-22T18:35:50.801Z,9.93
2018-06-22T18:38:20.464Z,10.97
2018-06-22T18:40:50.172Z,7.70
2018-06-22T18:43:25.097Z,7.03
2018-06-22T18:45:54.824Z,10.07
2018-06-22T18:48:24.463Z,8.97
2018-06-22T18:50:54.173Z,7.43
2018-06-22T18:53:29.008Z,9.77
2018-06-22T18:56:03.905Z,7.37
2018-06-22T18:58:38.688Z,9.43
2018-06-22T19:01:13.741Z,5.47
2018-06-22T19:03:48.373Z,11.13
2018-06-22T19:06:18.035Z,8.70
2018-06-22T19:08:47.655Z,10.43
2018-06-22T19:11:17.280Z,11.67
2018-06-22T19:13:46.963Z,5.07
2018-06-22T19:16:16.604Z,5.87
2018-06-22T19:18:46.355Z,8.13
2018-06-22T19:21:16.125Z,7.53
2018-06-22T19:23:45.821Z,7.33
2018-06-22T19:26:15.485Z,6.27
2018-06-22T19:28:45.136Z,7.70
2018-06-22T19:31:14.996Z,8.73
2018-06-22T19:33:44.825Z,9.93
2018-06-22T19:36:14.627Z,8.77
2018-06-22T19:38:44.292Z,7.83
2018-06-22T19:41:13.940Z,13.77
2018-06-22T19:43:48.792Z,10.73
2018-06-22T19:46:23.573Z,7.07
2018-06-22T19:49:56.620Z,5.20
2018-06-22T19:52:31.255Z,7.03
2018-06-22T19:55:00.951Z,11.70
2018-06-22T19:57:30.680Z,7.87
2018-06-22T20:00:00.356Z,8.63
2018-06-22T20:02:29.996Z,6.87
2018-06-22T20:04:59.631Z,9.93
2018-06-22T20:07:29.334Z,9.17
2018-06-22T20:09:58.977Z,6.80
2018-06-22T20:12:28.643Z,9.10
2018-06-22T20:14:58.468Z,9.30
2018-06-22T20:17:28.340Z,9.33
2018-06-22T20:19:58.000Z,9.67
2018-06-22T20:22:27.705Z,11.33
2018-06-22T20:25:02.484Z,11.83
2018-06-22T20:27:32.168Z,9.37
2018-06-22T20:30:01.822Z,8.93
2018-06-22T20:32:31.472Z,8.30
2018-06-22T20:35:06.320Z,9.10
2018-06-22T20:37:40.939Z,10.60
2018-06-22T20:40:15.748Z,9.13
2018-06-22T20:42:49.381Z,9.10
2018-06-22T20:45:24.272Z,7.93
2018-06-22T20:47:58.957Z,9.23
2018-06-22T20:50:35.876Z,7.33
2018-06-22T20:53:06.348Z,10.27
2018-06-22T20:55:36.148Z,9.80
2018-06-22T20:58:05.928Z,8.47
2018-06-22T21:00:35.654Z,8.70
2018-06-22T21:03:05.399Z,10.97
2018-06-22T21:05:35.064Z,10.07
2018-06-22T21:08:04.707Z,9.73
2018-06-22T21:10:34.432Z,12.03
2018-06-22T21:13:04.314Z,9.57
2018-06-22T21:15:33.847Z,8.53
2018-06-22T21:18:03.832Z,10.93
2018-06-22T21:20:33.505Z,8.83
2018-06-22T21:23:03.249Z,11.67
2018-06-22T21:25:32.940Z,6.60
2018-06-22T21:28:07.617Z,11.17
2018-06-22T21:30:42.293Z,8.30
2018-06-22T21:33:17.146Z,10.87
2018-06-22T21:35:52.140Z,15.40
2018-06-22T21:38:27.055Z,10.37
2018-06-22T21:40:56.691Z,12.03
2018-06-22T21:43:26.372Z,11.30
2018-06-22T21:45:56.057Z,9.60
2018-06-22T21:48:25.688Z,10.03
2018-06-22T21:50:55.364Z,10.23
2018-06-22T21:53:25.052Z,12.63
2018-06-22T21:55:54.742Z,10.60
2018-06-22T21:58:24.380Z,8.37
2018-06-22T22:00:54.193Z,6.87
2018-06-22T22:03:23.871Z,12.97
2018-06-22T22:05:53.542Z,9.13
2018-06-22T22:08:23.232Z,9.97
2018-06-22T22:10:58.084Z,7.40
2018-06-22T22:13:27.790Z,13.70
2018-06-22T22:15:57.455Z,12.13
2018-06-22T22:18:27.136Z,11.33
2018-06-22T22:20:56.772Z,9.03
2018-06-22T22:23:26.438Z,9.13
2018-06-22T22:25:56.124Z,6.37
2018-06-22T22:28:25.779Z,13.03
2018-06-22T22:30:55.456Z,9.10
2018-06-22T22:33:25.155Z,11.00
2018-06-22T22:35:54.835Z,11.80
2018-06-22T22:38:24.470Z,8.13
2018-06-22T22:40:54.148Z,8.70
2018-06-22T22:43:23.786Z,12.63
2018-06-22T22:45:53.449Z,11.57
2018-06-22T22:48:23.372Z,11.27
2018-06-22T22:50:53.041Z,8.53
2018-06-22T22:53:22.686Z,10.67
2018-06-22T22:55:52.391Z,13.80
2018-06-22T22:58:22.041Z,13.03
2018-06-22T23:00:51.700Z,12.73
2018-06-22T23:03:21.409Z,10.13
2018-06-22T23:05:51.088Z,15.03
2018-06-22T23:08:20.737Z,10.33
2018-06-22T23:10:50.460Z,13.00
2018-06-22T23:13:20.136Z,15.13
2018-06-22T23:15:49.816Z,10.97
2018-06-22T23:18:19.499Z,9.53
2018-06-22T23:20:49.171Z,11.67
2018-06-22T23:23:42.424Z,10.83
2018-06-22T23:26:12.131Z,11.60
2018-06-22T23:28:41.732Z,14.23
2018-06-22T23:31:11.439Z,14.93
2018-06-22T23:33:41.073Z,9.73
2018-06-22T23:36:10.720Z,10.00
2018-06-22T23:38:40.659Z,10.03
2018-06-22T23:41:10.327Z,10.90
2018-06-22T23:43:39.968Z,13.40
2018-06-22T23:46:12.509Z,12.10
2018-06-22T23:48:42.229Z,11.70
2018-06-22T23:51:11.935Z,12.60
2018-06-22T23:53:41.571Z,16.73
2018-06-22T23:56:11.276Z,13.33
2018-06-22T23:58:40.920Z,14.40
